createdAt,value
2019-03-06T00:58:39.599Z,2.72
2019-03-06T01:01:06.766Z,3.92
2019-03-06T01:03:33.956Z,3.52
2019-03-06T01:06:01.142Z,3.95
2019-03-06T01:08:28.340Z,4.65
2019-03-06T01:10:55.513Z,4.58
2019-03-06T01:13:22.697Z,3.87
2019-03-06T01:15:49.862Z,3.35
2019-03-06T01:18:17.043Z,4.12
2019-03-06T01:20:44.298Z,4.35
2019-03-06T01:23:11.540Z,4.50
2019-03-06T01:25:38.771Z,4.50
2019-03-06T01:28:05.929Z,3.95
2019-03-06T01:30:33.147Z,4.45
2019-03-06T01:33:11.114Z,4.20
2019-03-06T01:35:48.444Z,4.42
2019-03-06T01:38:34.974Z,3.60
2019-03-06T01:41:12.420Z,4.05
2019-03-06T01:43:41.253Z,3.95
2019-03-06T01:46:08.458Z,4.35
2019-03-06T01:48:35.651Z,3.85
2019-03-06T01:51:02.836Z,4.80
2019-03-06T01:53:30.042Z,4.30
2019-03-06T01:55:57.213Z,5.22
2019-03-06T01:58:24.667Z,5.25
2019-03-06T02:00:51.858Z,5.20
2019-03-06T02:03:19.025Z,5.90
2019-03-06T02:05:46.193Z,4.83
2019-03-06T02:08:13.380Z,3.55
2019-03-06T02:10:41.551Z,4.20
2019-03-06T02:13:08.785Z,4.05
2019-03-06T02:15:35.962Z,4.83
2019-03-06T02:18:03.133Z,4.65
2019-03-06T02:20:30.298Z,5.28
2019-03-06T02:22:57.482Z,5.58
2019-03-06T02:25:24.967Z,6.25
2019-03-06T02:27:52.137Z,5.92
2019-03-06T02:30:20.960Z,5.90
2019-03-06T02:32:48.235Z,5.83
2019-03-06T02:35:15.487Z,5.45
2019-03-06T02:37:42.761Z,5.85
2019-03-06T02:40:10.258Z,5.65
2019-03-06T02:42:37.446Z,5.10
2019-03-06T02:45:06.248Z,5.80
2019-03-06T02:47:33.439Z,6.20
2019-03-06T02:50:00.642Z,4.83
2019-03-06T02:52:27.807Z,5.75
2019-03-06T02:54:55.154Z,5.25
2019-03-06T02:57:22.383Z,5.20
2019-03-06T02:59:57.177Z,4.90
2019-03-06T03:02:26.008Z,5.92
2019-03-06T03:05:03.818Z,5.70
2019-03-06T03:07:30.987Z,4.83
2019-03-06T03:09:58.256Z,5.17
2019-03-06T03:12:25.528Z,7.12
2019-03-06T03:14:52.743Z,4.80
2019-03-06T03:17:19.965Z,4.53
2019-03-06T03:19:47.431Z,6.37
2019-03-06T03:22:14.603Z,7.17
2019-03-06T03:24:41.788Z,5.33
2019-03-06T03:27:08.959Z,4.58
2019-03-06T03:29:36.140Z,4.50
2019-03-06T03:32:03.673Z,4.30
2019-03-06T03:34:31.149Z,6.12
2019-03-06T03:36:58.324Z,7.22
2019-03-06T03:39:25.588Z,5.10
2019-03-06T03:41:52.824Z,4.78
2019-03-06T03:44:19.989Z,5.17
2019-03-06T03:46:47.201Z,5.80
2019-03-06T03:49:14.675Z,5.45
2019-03-06T03:51:41.920Z,5.90
2019-03-06T03:54:09.084Z,4.78
2019-03-06T03:56:36.302Z,5.12
2019-03-06T03:59:03.466Z,5.28
2019-03-06T04:01:31.519Z,4.60
2019-03-06T04:03:58.877Z,4.95
2019-03-06T04:06:26.109Z,5.00
2019-03-06T04:08:53.293Z,4.75
2019-03-06T04:11:20.461Z,4.60
2019-03-06T04:13:47.647Z,4.83
2019-03-06T04:16:14.821Z,4.90
2019-03-06T04:18:42.298Z,4.70
2019-03-06T04:21:09.454Z,5.00
2019-03-06T04:23:36.679Z,5.15
2019-03-06T04:26:03.851Z,4.35
2019-03-06T04:28:31.044Z,5.83
2019-03-06T04:30:58.283Z,4.65
2019-03-06T04:33:25.469Z,5.80
2019-03-06T04:35:52.642Z,4.80
2019-03-06T04:38:19.831Z,5.22
2019-03-06T04:40:46.987Z,5.33
2019-03-06T04:43:14.175Z,4.97
2019-03-06T04:45:41.357Z,4.37
2019-03-06T04:48:08.796Z,5.00
2019-03-06T04:50:35.978Z,5.22
2019-03-06T04:53:03.162Z,4.78
2019-03-06T04:55:30.349Z,5.70
2019-03-06T04:57:57.513Z,4.10
2019-03-06T05:00:24.795Z,5.00
2019-03-06T05:02:52.226Z,4.60
2019-03-06T05:05:19.473Z,4.00
2019-03-06T05:07:46.674Z,4.35
2019-03-06T05:10:13.987Z,3.50
2019-03-06T05:12:41.331Z,3.77
2019-03-06T05:15:14.962Z,3.95
2019-03-06T05:17:43.799Z,3.42
2019-03-06T05:20:10.982Z,4.10
2019-03-06T05:22:38.168Z,4.30
2019-03-06T05:25:05.777Z,3.35
2019-03-06T05:27:32.954Z,3.33
2019-03-06T05:30:00.345Z,3.58
2019-03-06T05:32:28.343Z,3.50
2019-03-06T05:34:56.268Z,3.83
2019-03-06T05:37:27.719Z,2.85
2019-03-06T05:39:54.913Z,2.85
2019-03-06T05:42:22.345Z,3.42
2019-03-06T05:44:49.531Z,2.83
2019-03-06T05:47:16.695Z,2.05
2019-03-06T05:49:43.884Z,2.70
2019-03-06T05:52:11.074Z,3.70
2019-03-06T05:54:38.238Z,3.20
2019-03-06T05:57:05.461Z,3.20
2019-03-06T05:59:32.643Z,2.92
2019-03-06T06:01:59.877Z,3.58
2019-03-06T06:04:27.094Z,2.90
2019-03-06T06:06:54.284Z,2.33
2019-03-06T06:09:21.454Z,2.37
2019-03-06T06:11:48.652Z,3.33
2019-03-06T06:14:15.899Z,2.50
2019-03-06T06:16:43.150Z,3.33
2019-03-06T06:19:10.326Z,2.40
2019-03-06T06:21:45.171Z,2.52
2019-03-06T06:24:12.358Z,2.50
2019-03-06T06:26:39.533Z,3.15
2019-03-06T06:29:06.714Z,2.45
2019-03-06T06:31:33.891Z,3.35
2019-03-06T06:34:01.086Z,2.72
2019-03-06T06:36:28.519Z,3.15
2019-03-06T06:38:55.715Z,2.62
2019-03-06T06:41:22.893Z,2.30
2019-03-06T06:43:50.374Z,3.15
2019-03-06T06:46:23.671Z,2.62
2019-03-06T06:48:50.950Z,2.25
2019-03-06T06:51:22.589Z,2.02
2019-03-06T06:53:51.437Z,2.40
2019-03-06T06:56:36.420Z,2.47
2019-03-06T06:59:14.319Z,2.90
2019-03-06T07:01:56.413Z,2.77
2019-03-06T07:04:44.722Z,1.98
2019-03-06T07:07:13.542Z,2.05
2019-03-06T07:09:48.198Z,1.75
2019-03-06T07:12:17.084Z,2.37
2019-03-06T07:14:54.787Z,2.22
2019-03-06T07:17:26.406Z,1.87
2019-03-06T07:19:55.236Z,2.63
2019-03-06T07:22:26.538Z,2.83
2019-03-06T07:25:04.089Z,1.87
2019-03-06T07:27:38.511Z,2.00
2019-03-06T07:30:26.877Z,1.85
2019-03-06T07:32:55.688Z,2.30
2019-03-06T07:35:54.706Z,1.65
2019-03-06T07:38:22.230Z,1.80
2019-03-06T07:40:51.046Z,1.80
2019-03-06T07:43:19.869Z,2.00
2019-03-06T07:45:51.510Z,1.67
2019-03-06T07:48:26.017Z,2.03
2019-03-06T07:50:54.840Z,1.70
2019-03-06T07:53:44.407Z,1.90
2019-03-06T07:56:13.264Z,2.12
2019-03-06T07:58:56.119Z,1.92
2019-03-06T08:01:24.448Z,2.77
2019-03-06T08:04:04.934Z,2.35
2019-03-06T08:06:32.101Z,2.35
2019-03-06T08:08:59.314Z,1.87
2019-03-06T08:11:33.742Z,1.77
2019-03-06T08:14:02.577Z,1.70
2019-03-06T08:16:34.299Z,2.02
2019-03-06T08:19:08.910Z,2.30
2019-03-06T08:21:40.415Z,1.82
2019-03-06T08:24:09.252Z,2.27
2019-03-06T08:26:36.714Z,1.92
2019-03-06T08:29:03.956Z,2.47
2019-03-06T08:31:35.484Z,2.25
2019-03-06T08:34:02.884Z,2.25
2019-03-06T08:36:30.093Z,2.17
2019-03-06T08:38:57.284Z,2.22
2019-03-06T08:41:24.481Z,1.35
2019-03-06T08:43:51.679Z,2.05
2019-03-06T08:46:36.701Z,1.70
2019-03-06T08:49:11.190Z,1.70
2019-03-06T08:51:40.065Z,1.72
2019-03-06T08:54:08.877Z,1.80
2019-03-06T08:56:43.372Z,2.00
2019-03-06T08:59:18.743Z,1.60
2019-03-06T09:02:00.597Z,1.67
2019-03-06T09:04:29.478Z,1.75
2019-03-06T09:07:07.302Z,1.37
2019-03-06T09:09:36.105Z,1.87
2019-03-06T09:12:17.108Z,2.08
2019-03-06T09:14:45.984Z,1.57
2019-03-06T09:17:17.690Z,1.47
2019-03-06T09:19:58.588Z,2.00
2019-03-06T09:22:30.955Z,1.90
2019-03-06T09:25:16.825Z,1.92
2019-03-06T09:27:48.409Z,1.80
2019-03-06T09:30:23.289Z,2.17
2019-03-06T09:32:54.596Z,1.90
2019-03-06T09:35:29.225Z,1.30
2019-03-06T09:38:15.865Z,1.77
2019-03-06T09:40:53.519Z,1.65
2019-03-06T09:43:22.371Z,2.05
2019-03-06T09:45:51.183Z,1.92
2019-03-06T09:48:22.869Z,2.00
2019-03-06T09:50:54.449Z,1.50
2019-03-06T09:53:23.535Z,1.65
2019-03-06T09:56:07.320Z,1.62
2019-03-06T09:58:36.142Z,1.80
2019-03-06T10:01:05.033Z,1.67
2019-03-06T10:03:34.148Z,2.10
2019-03-06T10:06:02.995Z,1.82
2019-03-06T10:08:47.934Z,1.30
2019-03-06T10:11:20.266Z,1.65
2019-03-06T10:13:52.211Z,1.90
2019-03-06T10:16:23.534Z,1.60
2019-03-06T10:18:55.186Z,1.75
2019-03-06T10:21:22.417Z,2.10
2019-03-06T10:23:49.860Z,1.30
2019-03-06T10:26:17.214Z,1.20
2019-03-06T10:28:44.386Z,1.80
2019-03-06T10:31:11.741Z,1.60
2019-03-06T10:33:38.996Z,1.55
2019-03-06T10:36:06.346Z,1.87
2019-03-06T10:38:33.642Z,1.70
2019-03-06T10:41:00.926Z,1.87
2019-03-06T10:43:28.222Z,1.80
2019-03-06T10:45:55.478Z,1.82
2019-03-06T10:48:22.729Z,1.52
2019-03-06T10:50:49.974Z,1.50
2019-03-06T10:53:17.257Z,1.82
2019-03-06T10:55:44.513Z,1.62
2019-03-06T10:58:11.749Z,1.30
2019-03-06T11:00:49.537Z,1.82
2019-03-06T11:03:16.784Z,1.60
2019-03-06T11:05:44.053Z,1.60
2019-03-06T11:08:11.302Z,2.05
2019-03-06T11:10:38.597Z,1.87
2019-03-06T11:13:08.563Z,1.55
2019-03-06T11:15:35.862Z,1.50
2019-03-06T11:18:03.117Z,1.80
2019-03-06T11:20:34.327Z,1.55
2019-03-06T11:23:02.459Z,1.62
2019-03-06T11:25:30.182Z,2.17
2019-03-06T11:27:57.429Z,1.80
2019-03-06T11:30:29.167Z,1.67
2019-03-06T11:32:56.344Z,1.60
2019-03-06T11:35:23.613Z,1.67
2019-03-06T11:37:50.865Z,2.40
2019-03-06T11:40:18.128Z,1.90
2019-03-06T11:42:45.485Z,2.35
2019-03-06T11:45:14.258Z,2.20
2019-03-06T11:47:41.518Z,2.00
2019-03-06T11:50:09.934Z,1.75
2019-03-06T11:52:37.194Z,1.87
2019-03-06T11:55:06.463Z,1.80
2019-03-06T11:57:34.783Z,1.98
2019-03-06T12:00:02.582Z,1.75
2019-03-06T12:02:30.151Z,1.60
2019-03-06T12:04:57.326Z,2.00
2019-03-06T12:07:24.494Z,2.83
2019-03-06T12:09:51.762Z,2.08
2019-03-06T12:12:19.007Z,1.75
2019-03-06T12:14:46.304Z,1.40
2019-03-06T12:17:13.656Z,1.87
2019-03-06T12:19:40.986Z,1.92
2019-03-06T12:22:08.164Z,1.82
2019-03-06T12:24:35.440Z,1.67
2019-03-06T12:27:02.695Z,1.77
2019-03-06T12:29:29.880Z,2.17
2019-03-06T12:31:57.062Z,2.00
2019-03-06T12:34:24.577Z,1.65
2019-03-06T12:36:51.794Z,1.75
2019-03-06T12:39:19.086Z,1.98
2019-03-06T12:41:46.323Z,2.10
2019-03-06T12:44:13.577Z,1.77
2019-03-06T12:46:40.965Z,1.95
2019-03-06T12:49:08.266Z,2.00
2019-03-06T12:51:35.511Z,2.08
2019-03-06T12:54:02.852Z,2.10
2019-03-06T12:56:30.106Z,2.08
2019-03-06T12:58:57.381Z,2.50
2019-03-06T13:01:24.626Z,2.22
2019-03-06T13:03:51.934Z,1.70
2019-03-06T13:06:24.456Z,2.22
2019-03-06T13:08:50.679Z,1.90
2019-03-06T13:11:17.312Z,2.10
2019-03-06T13:13:44.572Z,2.42
2019-03-06T13:16:11.808Z,1.92
2019-03-06T13:18:39.122Z,1.80
2019-03-06T13:21:06.925Z,1.52
2019-03-06T13:23:34.284Z,1.65
2019-03-06T13:26:10.004Z,1.75
2019-03-06T13:28:30.501Z,2.37
2019-03-06T13:30:57.771Z,1.62
2019-03-06T13:33:26.629Z,1.55
2019-03-06T13:35:53.986Z,1.98
2019-03-06T13:38:21.172Z,1.95
2019-03-06T13:40:48.433Z,1.90
2019-03-06T13:43:15.751Z,2.00
2019-03-06T13:45:43.026Z,1.95
2019-03-06T13:48:10.280Z,1.77
2019-03-06T13:50:37.607Z,2.00
2019-03-06T13:53:04.785Z,2.65
2019-03-06T13:55:32.033Z,1.90
2019-03-06T13:57:59.320Z,1.60
2019-03-06T14:00:26.566Z,1.65
2019-03-06T14:02:53.875Z,2.35
2019-03-06T14:05:21.485Z,1.62
2019-03-06T14:07:56.050Z,1.95
2019-03-06T14:10:20.687Z,2.45
2019-03-06T14:12:47.851Z,1.67
2019-03-06T14:15:15.183Z,2.15
2019-03-06T14:17:42.817Z,2.10
2019-03-06T14:20:10.795Z,1.85
2019-03-06T14:22:38.051Z,1.87
2019-03-06T14:25:08.955Z,1.98
2019-03-06T14:27:36.297Z,2.15
2019-03-06T14:30:08.119Z,1.67
2019-03-06T14:32:35.382Z,2.40
2019-03-06T14:35:02.656Z,2.08
2019-03-06T14:37:29.902Z,2.10
2019-03-06T14:39:57.175Z,2.30
2019-03-06T14:42:24.484Z,2.80
2019-03-06T14:44:51.743Z,2.15
2019-03-06T14:47:18.983Z,2.12
2019-03-06T14:49:46.241Z,2.42
2019-03-06T14:52:13.506Z,1.98
2019-03-06T14:54:40.747Z,1.90
2019-03-06T14:57:07.945Z,2.20
2019-03-06T14:59:35.141Z,2.05
2019-03-06T15:02:02.417Z,2.42
2019-03-06T15:04:29.767Z,2.35
2019-03-06T15:06:57.014Z,1.95
2019-03-06T15:09:24.801Z,2.58
2019-03-06T15:11:51.980Z,1.87
2019-03-06T15:14:19.250Z,2.37
2019-03-06T15:16:46.534Z,1.70
2019-03-06T15:19:13.762Z,2.00
2019-03-06T15:21:41.024Z,2.30
2019-03-06T15:24:08.293Z,1.95
2019-03-06T15:26:35.493Z,2.37
2019-03-06T15:29:02.742Z,2.35
2019-03-06T15:31:29.996Z,1.85
2019-03-06T15:33:57.166Z,1.98
2019-03-06T15:36:24.378Z,1.90
2019-03-06T15:38:51.631Z,1.90
2019-03-06T15:41:18.887Z,1.90
2019-03-06T15:43:46.130Z,2.25
2019-03-06T15:46:13.392Z,2.08
2019-03-06T15:48:40.558Z,1.98
2019-03-06T15:51:07.735Z,2.27
2019-03-06T15:53:35.182Z,2.30
2019-03-06T15:56:02.458Z,1.90
2019-03-06T15:58:29.735Z,2.70
2019-03-06T16:00:56.893Z,1.87
2019-03-06T16:03:24.056Z,2.45
2019-03-06T16:05:51.326Z,2.15
2019-03-06T16:08:18.520Z,2.33
2019-03-06T16:10:45.985Z,1.92
2019-03-06T16:13:13.231Z,2.22
2019-03-06T16:15:40.417Z,1.90
2019-03-06T16:18:08.547Z,2.15
2019-03-06T16:20:35.813Z,2.47
2019-03-06T16:23:03.058Z,2.20
2019-03-06T16:25:36.864Z,2.33
2019-03-06T16:27:59.157Z,2.25
2019-03-06T16:30:27.599Z,2.10
2019-03-06T16:32:55.119Z,2.42
2019-03-06T16:35:22.307Z,2.17
2019-03-06T16:37:49.557Z,1.90
2019-03-06T16:40:18.409Z,1.77
2019-03-06T16:42:46.037Z,2.25
2019-03-06T16:45:13.554Z,2.30
2019-03-06T16:47:40.735Z,2.12
2019-03-06T16:50:16.352Z,2.00
2019-03-06T16:52:43.754Z,2.00
2019-03-06T16:55:11.671Z,1.80
2019-03-06T16:57:39.133Z,2.30
2019-03-06T17:00:07.954Z,2.27
2019-03-06T17:02:35.168Z,2.55
2019-03-06T17:05:02.434Z,2.58
2019-03-06T17:07:29.670Z,2.25
2019-03-06T17:09:56.912Z,2.00
2019-03-06T17:12:24.093Z,2.17
2019-03-06T17:14:51.350Z,2.50
2019-03-06T17:17:18.771Z,2.70
2019-03-06T17:19:46.074Z,3.33
2019-03-06T17:22:13.288Z,2.47
2019-03-06T17:24:40.545Z,2.50
2019-03-06T17:27:07.757Z,2.70
2019-03-06T17:29:34.995Z,3.55
2019-03-06T17:32:02.255Z,2.45
2019-03-06T17:34:29.509Z,1.90
2019-03-06T17:36:56.757Z,2.80
2019-03-06T17:39:24.178Z,2.37
2019-03-06T17:41:51.428Z,4.58
2019-03-06T17:44:18.602Z,3.08
2019-03-06T17:46:45.792Z,2.50
2019-03-06T17:49:13.056Z,4.78
2019-03-06T17:51:40.222Z,3.00
2019-03-06T17:54:07.408Z,2.80
2019-03-06T17:56:34.648Z,3.00
2019-03-06T17:59:03.296Z,3.30
2019-03-06T18:01:30.609Z,3.10
2019-03-06T18:04:02.447Z,2.67
2019-03-06T18:06:29.637Z,3.30
2019-03-06T18:08:56.890Z,3.00
2019-03-06T18:11:24.138Z,3.00
2019-03-06T18:13:51.323Z,3.05
2019-03-06T18:16:18.499Z,2.65
2019-03-06T18:18:45.751Z,3.40
2019-03-06T18:21:13.102Z,2.70
2019-03-06T18:23:40.362Z,3.10
2019-03-06T18:26:07.680Z,3.35
2019-03-06T18:28:34.948Z,3.80
2019-03-06T18:31:02.147Z,3.20
2019-03-06T18:33:29.422Z,4.05
2019-03-06T18:35:56.671Z,3.40
2019-03-06T18:38:24.822Z,4.35
2019-03-06T18:40:52.099Z,3.00
2019-03-06T18:43:19.358Z,4.10
2019-03-06T18:45:46.541Z,2.87
2019-03-06T18:48:13.734Z,3.60
2019-03-06T18:50:40.977Z,3.27
2019-03-06T18:53:08.218Z,3.52
2019-03-06T18:55:35.554Z,3.40
2019-03-06T18:58:02.801Z,3.35
2019-03-06T19:00:30.519Z,3.65
2019-03-06T19:02:58.067Z,3.33
2019-03-06T19:05:25.261Z,3.95
2019-03-06T19:07:52.446Z,3.58
2019-03-06T19:10:20.006Z,3.67
2019-03-06T19:12:47.241Z,3.70
2019-03-06T19:15:15.474Z,3.58
2019-03-06T19:17:42.664Z,4.22
2019-03-06T19:20:09.917Z,3.72
2019-03-06T19:22:37.186Z,3.85
2019-03-06T19:25:05.592Z,3.47
2019-03-06T19:27:32.875Z,3.50
2019-03-06T19:30:00.333Z,3.90
2019-03-06T19:32:27.574Z,3.45
2019-03-06T19:34:54.772Z,3.08
2019-03-06T19:37:22.027Z,3.60
2019-03-06T19:39:49.263Z,3.90
2019-03-06T19:42:16.470Z,3.65
2019-03-06T19:44:43.665Z,4.00
2019-03-06T19:47:10.916Z,3.92
2019-03-06T19:49:38.395Z,3.40
2019-03-06T19:52:05.670Z,4.12
2019-03-06T19:54:32.916Z,4.05
2019-03-06T19:57:00.196Z,3.52
2019-03-06T19:59:27.417Z,3.70
2019-03-06T20:01:54.742Z,3.45
2019-03-06T20:04:21.940Z,4.25
2019-03-06T20:06:49.384Z,3.87
2019-03-06T20:09:21.000Z,3.27
2019-03-06T20:11:48.266Z,3.60
2019-03-06T20:14:15.561Z,4.10
2019-03-06T20:16:42.804Z,4.08
2019-03-06T20:19:10.031Z,3.77
2019-03-06T20:21:37.363Z,4.28
2019-03-06T20:24:04.821Z,4.10
2019-03-06T20:26:32.126Z,3.90
2019-03-06T20:28:59.539Z,4.12
2019-03-06T20:31:26.827Z,3.92
2019-03-06T20:33:54.201Z,4.20
2019-03-06T20:36:21.483Z,4.30
2019-03-06T20:38:48.918Z,3.95
2019-03-06T20:41:16.192Z,4.37
2019-03-06T20:43:43.634Z,3.90
2019-03-06T20:46:10.849Z,4.60
2019-03-06T20:48:38.109Z,4.30
2019-03-06T20:51:05.476Z,4.60
2019-03-06T20:53:32.743Z,3.65
2019-03-06T20:56:00.042Z,5.12
2019-03-06T20:58:27.271Z,4.12
2019-03-06T21:00:54.511Z,4.25
2019-03-06T21:03:21.970Z,5.15
2019-03-06T21:05:49.218Z,4.20
2019-03-06T21:08:16.713Z,4.80
2019-03-06T21:10:43.982Z,4.72
2019-03-06T21:13:11.299Z,4.17
2019-03-06T21:15:38.536Z,4.70
2019-03-06T21:18:11.030Z,4.80
2019-03-06T21:20:37.769Z,5.70
2019-03-06T21:23:05.005Z,4.85
2019-03-06T21:25:32.413Z,4.55
2019-03-06T21:27:59.599Z,4.60
2019-03-06T21:30:43.423Z,5.00
2019-03-06T21:33:11.008Z,4.95
2019-03-06T21:35:38.198Z,4.62
2019-03-06T21:38:05.375Z,5.00
2019-03-06T21:40:32.754Z,5.28
2019-03-06T21:43:00.462Z,4.90
2019-03-06T21:45:27.772Z,4.72
2019-03-06T21:47:55.049Z,4.35
2019-03-06T21:50:22.314Z,5.20
2019-03-06T21:52:49.593Z,4.42
2019-03-06T21:55:16.830Z,5.12
2019-03-06T21:57:44.410Z,4.30
2019-03-06T22:00:13.280Z,4.12
2019-03-06T22:02:40.531Z,4.90
2019-03-06T22:05:07.805Z,5.80
2019-03-06T22:07:35.066Z,5.45
2019-03-06T22:10:02.318Z,5.40
2019-03-06T22:12:29.600Z,5.62
2019-03-06T22:14:57.051Z,4.83
2019-03-06T22:17:24.236Z,5.33
2019-03-06T22:19:51.557Z,5.80
2019-03-06T22:22:19.313Z,5.70
2019-03-06T22:24:46.584Z,4.30
2019-03-06T22:27:14.102Z,4.42
2019-03-06T22:29:41.369Z,4.33
2019-03-06T22:32:08.716Z,5.00
2019-03-06T22:34:35.989Z,5.05
2019-03-06T22:37:03.243Z,5.03
2019-03-06T22:39:30.529Z,5.75
2019-03-06T22:41:57.839Z,4.47
2019-03-06T22:44:25.089Z,4.15
2019-03-06T22:46:52.283Z,4.15
2019-03-06T22:49:19.450Z,6.20
2019-03-06T22:51:46.732Z,5.45
2019-03-06T22:54:13.990Z,4.75
2019-03-06T22:56:41.239Z,5.12
2019-03-06T22:59:08.804Z,5.37
2019-03-06T23:01:36.051Z,4.60
2019-03-06T23:04:03.335Z,4.70
2019-03-06T23:06:30.806Z,4.37
2019-03-06T23:08:58.029Z,4.67
2019-03-06T23:11:25.282Z,5.47
2019-03-06T23:13:52.471Z,5.33
2019-03-06T23:16:19.730Z,4.30
2019-03-06T23:18:46.978Z,4.40
2019-03-06T23:21:14.177Z,4.15
2019-03-06T23:23:41.554Z,5.33
2019-03-06T23:26:08.778Z,4.65
2019-03-06T23:28:36.040Z,5.12
2019-03-06T23:31:03.238Z,5.10
2019-03-06T23:33:30.501Z,4.72
2019-03-06T23:35:57.687Z,5.95
2019-03-06T23:38:24.953Z,5.45
2019-03-06T23:40:52.153Z,5.80
2019-03-06T23:43:19.385Z,5.42
2019-03-06T23:45:46.650Z,5.12
2019-03-06T23:48:14.166Z,5.28
2019-03-06T23:50:41.360Z,5.00
2019-03-06T23:53:10.474Z,4.75
2019-03-06T23:55:38.010Z,5.37
2019-03-06T23:58:05.252Z,4.87
